Time;durP1;ratioP1;P1;durP2;ratioP2;P2;SDS_P1;SDS_P2;PMS_P1;PMS_P2;Temp;Humidity;BMP_temperature;BMP_pressure;BME280_temperature;BME280_humidity;BME280_pressure;Samples;Min_cycle;Max_cycle;Signal;HPM_P1;HPM_P2
2022/08/31 00:05:10;;;;;;;2.80;1.60;;;;;;;17.05;83.84;101077.23;1666456;86;21042;-78
2022/08/31 00:07:38;;;;;;;2.52;1.47;;;;;;;17.06;83.94;101082.91;1666240;86;21968;-78
2022/08/31 00:10:17;;;;;;;3.10;1.70;;;;;;;17.07;83.84;101083.28;1666269;86;21034;-76
2022/08/31 00:12:47;;;;;;;2.67;1.60;;;;;;;17.07;83.83;101081.52;1675836;85;21063;-75
2022/08/31 00:15:19;;;;;;;4.10;1.30;;;;;;;17.07;83.71;101082.84;1675951;85;21549;-75
2022/08/31 00:17:47;;;;;;;4.30;1.60;;;;;;;17.06;83.70;101079.78;1675673;85;21509;-75
2022/08/31 00:20:17;;;;;;;3.80;1.60;;;;;;;17.02;83.77;101082.22;1675848;85;21791;-76
2022/08/31 00:22:44;;;;;;;3.83;1.62;;;;;;;16.97;83.63;101081.61;1666808;85;27130;-75
2022/08/31 00:25:11;;;;;;;2.55;1.32;;;;;;;16.94;83.67;101078.65;1666319;86;21062;-75
2022/08/31 00:27:38;;;;;;;3.92;1.70;;;;;;;16.95;83.84;101077.70;1666518;86;21517;-76
2022/08/31 00:30:08;;;;;;;3.33;1.32;;;;;;;16.92;83.67;101080.52;1666276;86;21069;-75
2022/08/31 00:32:35;;;;;;;4.83;1.72;;;;;;;16.91;83.73;101076.64;1666687;86;21071;-76
2022/08/31 00:35:03;;;;;;;3.30;1.70;;;;;;;16.91;83.58;101078.81;1666096;84;21141;-76
2022/08/31 00:37:30;;;;;;;1.67;1.47;;;;;;;16.91;83.56;101073.52;1666308;86;21500;-76
2022/08/31 00:39:57;;;;;;;3.33;1.90;;;;;;;16.93;83.70;101075.62;1666314;85;22020;-76
2022/08/31 00:42:24;;;;;;;2.72;1.37;;;;;;;16.93;83.47;101080.92;1666344;86;21119;-75
2022/08/31 00:44:51;;;;;;;4.22;1.40;;;;;;;16.93;83.49;101078.72;1666355;86;21136;-75
2022/08/31 00:47:18;;;;;;;8.43;1.70;;;;;;;16.92;83.54;101084.48;1666182;86;21098;-75
2022/08/31 00:49:50;;;;;;;5.25;1.60;;;;;;;16.90;83.31;101078.88;1666249;86;21021;-75
2022/08/31 00:52:24;;;;;;;2.98;1.50;;;;;;;16.88;83.29;101081.63;1666197;85;21054;-76
2022/08/31 00:55:00;;;;;;;3.05;1.50;;;;;;;16.89;83.42;101082.00;1666177;85;21018;-77
2022/08/31 00:57:31;;;;;;;2.83;1.50;;;;;;;16.84;83.15;101073.91;1666274;86;21126;-77
2022/08/31 01:00:02;;;;;;;3.15;1.30;;;;;;;16.90;83.36;101078.88;1666196;86;21000;-77
2022/08/31 01:02:29;;;;;;;2.60;1.82;;;;;;;16.87;82.85;101073.75;1666498;86;21016;-77
2022/08/31 01:04:56;;;;;;;2.77;1.55;;;;;;;16.86;83.10;101072.05;1666109;86;21437;-77
2022/08/31 01:07:23;;;;;;;2.83;1.72;;;;;;;16.86;83.17;101074.70;1624998;88;21060;-77
2022/08/31 01:09:51;;;;;;;5.05;1.75;;;;;;;16.87;83.14;101075.08;1624911;88;21162;-77
2022/08/31 01:12:18;;;;;;;3.22;1.50;;;;;;;16.88;83.01;101075.48;1625115;87;21511;-77
2022/08/31 01:14:45;;;;;;;3.42;1.57;;;;;;;16.87;83.02;101075.08;1624769;87;21629;-77
2022/08/31 01:17:12;;;;;;;3.05;1.70;;;;;;;16.87;83.03;101081.22;1625058;87;21590;-78
2022/08/31 01:20:05;;;;;;;2.87;1.72;;;;;;;16.89;83.13;101079.83;1624748;88;21210;-76
2022/08/31 01:22:56;;;;;;;2.15;1.30;;;;;;;16.89;82.81;101082.47;1666754;86;21166;-76
2022/08/31 01:25:24;;;;;;;5.95;1.82;;;;;;;16.88;82.79;101079.45;1666638;86;21087;-76
2022/08/31 01:27:53;;;;;;;4.17;1.87;;;;;;;16.86;82.76;101077.34;1666014;86;21063;-77
2022/08/31 01:30:24;;;;;;;4.22;1.80;;;;;;;16.84;82.86;101072.11;1666292;86;21119;-76
2022/08/31 01:32:52;;;;;;;2.67;1.95;;;;;;;16.87;83.09;101077.72;1666464;85;21042;-76
2022/08/31 01:35:19;;;;;;;2.60;1.52;;;;;;;16.89;83.19;101074.53;1666136;84;21140;-76
2022/08/31 01:37:47;;;;;;;3.70;1.87;;;;;;;16.89;83.27;101080.67;1666004;86;21071;-76
2022/08/31 01:40:16;;;;;;;4.53;1.90;;;;;;;16.90;83.29;101081.53;1637927;85;21051;-76
2022/08/31 01:42:43;;;;;;;4.75;1.82;;;;;;;16.89;83.17;101083.33;1672489;85;21019;-76
2022/08/31 01:45:11;;;;;;;4.85;2.00;;;;;;;16.88;82.87;101078.98;1632846;87;21077;-75
2022/08/31 01:47:40;;;;;;;6.20;2.08;;;;;;;16.86;82.88;101077.34;1617448;88;21166;-76
2022/08/31 01:50:08;;;;;;;2.58;2.00;;;;;;;16.86;83.01;101076.02;1617344;88;21438;-76
2022/08/31 01:52:37;;;;;;;2.83;1.95;;;;;;;16.85;83.01;101072.52;1617226;88;21723;-76
2022/08/31 01:55:07;;;;;;;4.33;2.00;;;;;;;16.85;83.01;101072.52;1616422;88;21021;-76
2022/08/31 01:57:35;;;;;;;5.65;1.67;;;;;;;16.90;82.95;101085.06;1592558;88;21053;-76
2022/08/31 02:00:09;;;;;;;5.25;1.80;;;;;;;16.87;82.88;101079.89;1615102;88;21498;-76
2022/08/31 02:02:42;;;;;;;3.95;1.60;;;;;;;16.86;83.02;101086.61;1598161;88;21067;-76
2022/08/31 02:05:09;;;;;;;3.52;1.92;;;;;;;16.83;83.02;101084.13;1617315;87;21111;-76
2022/08/31 02:07:36;;;;;;;2.05;1.50;;;;;;;16.81;83.23;101088.64;1617444;88;21112;-76
2022/08/31 02:10:04;;;;;;;5.72;2.12;;;;;;;16.81;83.23;101093.94;1617371;88;21048;-76
2022/08/31 02:12:31;;;;;;;3.45;1.90;;;;;;;16.78;83.02;101088.80;1617448;88;21790;-76
2022/08/31 02:14:59;;;;;;;3.10;1.67;;;;;;;16.77;83.14;101080.48;1617217;88;21102;-76
2022/08/31 02:17:27;;;;;;;4.42;1.92;;;;;;;16.78;83.07;101083.51;1617574;88;21071;-77
2022/08/31 02:19:54;;;;;;;3.75;1.77;;;;;;;16.79;83.27;101078.11;1617293;88;21028;-76
2022/08/31 02:22:21;;;;;;;4.58;2.10;;;;;;;16.80;83.13;101076.34;1617521;88;21012;-76
2022/08/31 02:24:48;;;;;;;4.65;2.17;;;;;;;16.80;83.13;101076.34;1617279;88;21924;-76
2022/08/31 02:27:14;;;;;;;2.80;1.77;;;;;;;16.81;83.46;101077.58;1617391;88;21025;-76
2022/08/31 02:29:41;;;;;;;4.67;2.00;;;;;;;16.80;83.34;101076.34;1617245;88;21056;-76
2022/08/31 02:32:10;;;;;;;2.75;1.75;;;;;;;16.75;83.66;101069.08;1617330;88;21057;-76
2022/08/31 02:34:39;;;;;;;4.22;2.10;;;;;;;16.75;83.66;101069.08;1632192;87;21509;-76
2022/08/31 02:37:08;;;;;;;3.90;2.00;;;;;;;16.76;83.29;101074.75;1608169;88;21969;-76
2022/08/31 02:39:34;;;;;;;3.55;1.98;;;;;;;16.74;83.49;101077.49;1620055;88;21547;-76
2022/08/31 02:42:01;;;;;;;4.45;2.20;;;;;;;16.73;83.47;101078.41;1619802;88;21115;-76
2022/08/31 02:44:29;;;;;;;4.45;1.90;;;;;;;16.71;83.38;101072.33;1619974;88;21020;-76
2022/08/31 02:46:57;;;;;;;2.47;1.72;;;;;;;16.70;83.57;101071.95;1619885;88;21071;-76
2022/08/31 02:49:30;;;;;;;2.75;1.82;;;;;;;16.69;83.49;101074.22;1600643;88;21192;-76
2022/08/31 02:51:58;;;;;;;4.85;1.70;;;;;;;16.66;83.54;101076.55;1620692;88;21055;-76
2022/08/31 02:54:25;;;;;;;2.35;1.70;;;;;;;16.63;83.57;101075.88;1620167;88;21543;-76
2022/08/31 02:56:52;;;;;;;3.67;2.02;;;;;;;16.61;83.86;101076.41;1619767;88;21166;-76
2022/08/31 02:59:19;;;;;;;3.15;1.77;;;;;;;16.61;83.74;101073.28;1619789;88;21024;-76
2022/08/31 03:01:47;;;;;;;3.10;1.82;;;;;;;16.62;83.85;101073.66;1601910;87;21170;-76
2022/08/31 03:04:15;;;;;;;6.60;2.00;;;;;;;16.59;83.75;101071.18;1620036;88;21012;-76
2022/08/31 03:06:42;;;;;;;2.92;1.77;;;;;;;16.59;83.92;101072.50;1619741;88;21069;-76
2022/08/31 03:09:10;;;;;;;4.95;1.90;;;;;;;16.61;84.04;101071.11;1619863;88;21078;-76
2022/08/31 03:11:37;;;;;;;6.33;1.80;;;;;;;16.61;84.18;101066.67;1619937;87;21074;-76
2022/08/31 03:14:04;;;;;;;2.65;1.67;;;;;;;16.62;84.28;101068.38;1620028;87;21116;-76
2022/08/31 03:16:31;;;;;;;4.60;1.98;;;;;;;16.62;84.35;101069.70;1619873;88;21502;-76
2022/08/31 03:18:58;;;;;;;4.28;1.95;;;;;;;16.63;84.48;101068.78;1619986;88;21067;-76
2022/08/31 03:21:25;;;;;;;4.03;1.67;;;;;;;16.64;84.43;101070.95;1619863;88;20960;-76
2022/08/31 03:23:52;;;;;;;4.62;2.15;;;;;;;16.62;84.29;101067.52;1603397;88;21083;-76
2022/08/31 03:26:20;;;;;;;4.05;2.10;;;;;;;16.60;84.50;101067.62;1619781;88;21142;-76
2022/08/31 03:28:48;;;;;;;5.53;2.02;;;;;;;16.60;84.37;101082.62;1619772;88;21075;-76
2022/08/31 03:31:19;;;;;;;2.75;1.80;;;;;;;16.57;84.35;101087.63;1616435;88;21024;-76
2022/08/31 03:33:47;;;;;;;3.75;1.95;;;;;;;16.55;84.47;101086.84;1619826;88;21051;-76
2022/08/31 03:36:14;;;;;;;4.60;1.90;;;;;;;16.55;84.56;101079.38;1621458;87;21090;-76
2022/08/31 03:38:41;;;;;;;2.35;1.57;;;;;;;16.53;84.53;101080.77;1626827;87;21985;-76
2022/08/31 03:41:10;;;;;;;3.62;1.75;;;;;;;16.53;84.70;101080.77;1626984;88;21025;-76
2022/08/31 03:43:39;;;;;;;4.20;2.30;;;;;;;16.51;84.73;101085.27;1626966;87;21387;-76
2022/08/31 03:46:06;;;;;;;3.65;1.90;;;;;;;16.50;84.89;101084.89;1627129;88;21086;-76
2022/08/31 03:48:34;;;;;;;3.37;1.98;;;;;;;16.47;84.84;101091.67;1626898;88;21593;-76
2022/08/31 03:51:01;;;;;;;6.10;2.20;;;;;;;16.49;85.21;101089.81;1627192;87;21287;-76
2022/08/31 03:53:29;;;;;;;5.47;2.35;;;;;;;16.47;84.92;101092.52;1599302;88;21478;-76
2022/08/31 03:56:00;;;;;;;4.42;2.00;;;;;;;16.47;84.92;101092.52;1627160;88;21059;-76
2022/08/31 03:58:25;;;;;;;5.12;2.30;;;;;;;16.45;84.98;101099.66;1626666;88;21063;-76
2022/08/31 04:00:53;;;;;;;5.28;2.12;;;;;;;16.45;85.21;101094.37;1627133;87;21067;-76
2022/08/31 04:03:24;;;;;;;3.55;1.70;;;;;;;16.46;85.10;101097.87;1623219;88;21585;-76
2022/08/31 04:06:12;;;;;;;5.00;2.20;;;;;;;16.44;85.22;101092.67;1626911;88;21051;-76
2022/08/31 04:08:46;;;;;;;4.20;2.47;;;;;;;16.40;85.14;101090.25;1576734;88;21059;-76
2022/08/31 04:11:33;;;;;;;3.67;2.35;;;;;;;16.40;85.14;101090.25;1543422;93;21112;-76
2022/08/31 04:14:17;;;;;;;4.00;1.92;;;;;;;16.38;85.38;101096.08;1514178;94;21077;-76
2022/08/31 04:16:46;;;;;;;5.75;2.15;;;;;;;16.35;85.51;101083.00;1558092;89;22125;-76
2022/08/31 04:19:23;;;;;;;2.35;1.77;;;;;;;16.39;85.58;101088.08;1600289;88;21066;-76
2022/08/31 04:21:56;;;;;;;3.00;1.60;;;;;;;16.37;85.51;101084.64;1618386;88;21100;-75
2022/08/31 04:24:24;;;;;;;5.25;1.70;;;;;;;16.37;85.73;101091.25;1609292;88;20952;-76
2022/08/31 04:26:52;;;;;;;2.58;1.75;;;;;;;16.38;85.86;101092.98;1627143;88;21043;-76
2022/08/31 04:29:19;;;;;;;3.72;2.10;;;;;;;16.36;85.83;101089.55;1627035;88;22258;-76
2022/08/31 04:31:47;;;;;;;2.77;1.70;;;;;;;16.35;85.91;101090.50;1626922;88;21094;-76
2022/08/31 04:34:15;;;;;;;3.90;1.82;;;;;;;16.32;86.01;101087.13;1627025;88;21489;-76
2022/08/31 04:36:44;;;;;;;3.87;2.12;;;;;;;16.37;86.09;101097.87;1624841;86;21063;-76
2022/08/31 04:39:12;;;;;;;8.48;2.05;;;;;;;16.36;86.35;101092.67;1619494;88;21075;-76
2022/08/31 04:41:40;;;;;;;4.12;2.22;;;;;;;16.39;86.29;101095.16;1619695;88;21978;-76
2022/08/31 04:44:10;;;;;;;3.52;2.05;;;;;;;16.41;86.45;101097.27;1619545;88;22692;-76
2022/08/31 04:46:39;;;;;;;4.90;2.00;;;;;;;16.40;86.38;101101.68;1616044;86;21075;-80
2022/08/31 04:49:08;;;;;;;4.37;2.03;;;;;;;16.42;86.35;101106.91;1601356;86;21114;-80
2022/08/31 04:51:37;;;;;;;4.60;2.02;;;;;;;16.44;86.46;101107.23;1599274;87;21111;-81
2022/08/31 04:54:09;;;;;;;3.60;2.00;;;;;;;16.47;86.58;101107.55;1619174;88;21165;-81
2022/08/31 04:56:41;;;;;;;5.12;2.17;;;;;;;16.47;86.42;101107.55;1614832;87;21159;-77
2022/08/31 04:59:12;;;;;;;5.12;1.80;;;;;;;16.46;86.47;101103.16;1633187;86;21588;-80
2022/08/31 05:01:44;;;;;;;3.30;2.08;;;;;;;16.42;86.58;101095.00;1617282;86;21109;-79
2022/08/31 05:04:30;;;;;;;4.15;2.42;;;;;;;16.46;86.47;101106.69;1625688;86;21035;-76
2022/08/31 05:06:58;;;;;;;3.25;1.70;;;;;;;16.47;86.53;101109.72;1615033;87;21135;-82
2022/08/31 05:09:26;;;;;;;4.62;1.92;;;;;;;16.49;86.53;101112.30;1633800;86;21137;-83
2022/08/31 05:11:55;;;;;;;4.00;1.90;;;;;;;16.50;86.71;101112.67;1618389;87;21087;-88
2022/08/31 05:14:23;;;;;;;5.53;2.02;;;;;;;16.51;86.46;101119.20;1616502;87;21080;-82
2022/08/31 05:16:52;;;;;;;5.58;2.62;;;;;;;16.50;86.43;101120.61;1614467;87;21162;-85
2022/08/31 05:19:20;;;;;;;4.55;2.17;;;;;;;16.50;86.46;101121.94;1616547;87;21135;-85
2022/08/31 05:21:47;;;;;;;2.87;1.87;;;;;;;16.53;86.63;101127.07;1615246;87;21390;-88
2022/08/31 05:24:20;;;;;;;4.10;1.92;;;;;;;16.51;86.65;101123.64;1615388;87;21522;-85
2022/08/31 05:26:51;;;;;;;3.92;1.90;;;;;;;16.59;87.02;101132.52;1625637;86;21163;-91
2022/08/31 05:29:22;;;;;;;3.90;1.87;;;;;;;16.59;86.55;101134.70;1598875;88;21091;-88
2022/08/31 05:31:51;;;;;;;3.90;1.65;;;;;;;16.59;86.55;101134.70;1622644;86;22073;-83
2022/08/31 05:34:19;;;;;;;3.10;2.15;;;;;;;16.62;86.43;101142.95;1634890;86;21073;-86
2022/08/31 05:36:52;;;;;;;7.05;2.08;;;;;;;16.62;86.43;101142.95;1616847;88;21101;-82
2022/08/31 05:39:19;;;;;;;3.33;1.55;;;;;;;16.67;86.54;101147.55;1618317;86;21139;-86
2022/08/31 05:41:47;;;;;;;3.30;1.40;;;;;;;16.68;86.58;101152.78;1599547;86;21158;-85
2022/08/31 05:44:15;;;;;;;6.72;2.00;;;;;;;16.68;86.55;101154.11;1618659;86;21151;-82
2022/08/31 05:46:42;;;;;;;2.83;2.02;;;;;;;16.68;86.56;101155.43;1618367;86;21091;-77
2022/08/31 05:49:10;;;;;;;4.58;1.85;;;;;;;16.67;86.62;101153.70;1619505;86;21079;-85
2022/08/31 05:51:38;;;;;;;3.17;2.05;;;;;;;16.68;86.51;101163.38;1618755;86;21019;-83
2022/08/31 05:54:06;;;;;;;4.90;1.98;;;;;;;16.68;86.54;101158.08;1618552;86;21544;-84
2022/08/31 05:56:34;;;;;;;4.78;1.90;;;;;;;16.69;86.54;101163.75;1619078;86;21152;-84
2022/08/31 05:59:02;;;;;;;5.75;2.00;;;;;;;16.70;86.45;101167.25;1618768;86;21144;-80
2022/08/31 06:01:34;;;;;;;2.70;1.67;;;;;;;16.69;86.61;101169.05;1618890;86;21098;-83
2022/08/31 06:04:07;;;;;;;3.62;1.90;;;;;;;16.70;86.44;101173.39;1616018;86;21102;-82
2022/08/31 06:06:35;;;;;;;4.75;1.92;;;;;;;16.69;86.42;101177.45;1598699;86;21111;-81
2022/08/31 06:09:05;;;;;;;4.75;1.82;;;;;;;16.66;86.50;101173.17;1619427;86;21130;-82
2022/08/31 06:11:33;;;;;;;3.30;2.08;;;;;;;16.72;86.65;101179.95;1619221;86;21540;-78
2022/08/31 06:14:04;;;;;;;3.42;1.80;;;;;;;16.75;86.56;101182.44;1618771;86;21075;-81
2022/08/31 06:16:32;;;;;;;5.47;1.85;;;;;;;16.77;86.58;101182.41;1619093;86;22323;-80
2022/08/31 06:19:04;;;;;;;3.37;1.82;;;;;;;16.79;86.65;101185.80;1618806;86;21296;-79
2022/08/31 06:21:34;;;;;;;3.77;1.92;;;;;;;16.81;86.71;101187.45;1618580;86;21228;-79
2022/08/31 06:24:04;;;;;;;3.10;1.67;;;;;;;16.87;86.81;101197.72;1619346;86;20940;-79
2022/08/31 06:26:34;;;;;;;3.30;1.80;;;;;;;16.89;86.47;101202.48;1619389;86;22333;-80
2022/08/31 06:29:10;;;;;;;2.67;1.60;;;;;;;16.91;86.58;101196.65;1618736;86;21083;-85
2022/08/31 06:31:45;;;;;;;3.95;1.82;;;;;;;16.95;86.60;101198.19;1618634;86;21099;-80
2022/08/31 06:34:10;;;;;;;3.72;1.70;;;;;;;16.97;86.56;101187.53;1617160;86;21167;-79
2022/08/31 06:36:38;;;;;;;3.08;1.52;;;;;;;17.07;86.71;101196.73;1606332;86;21063;-80
2022/08/31 06:39:16;;;;;;;2.62;1.40;;;;;;;17.13;86.68;101200.38;1613408;88;21078;-79
2022/08/31 06:41:57;;;;;;;3.95;1.90;;;;;;;17.19;86.62;101202.33;1612566;88;21626;-79
2022/08/31 06:44:26;;;;;;;3.25;1.57;;;;;;;17.24;86.42;101198.50;1611298;88;21111;-79
2022/08/31 06:47:07;;;;;;;6.08;1.77;;;;;;;17.28;86.29;101202.69;1584494;87;21412;-80
2022/08/31 06:49:36;;;;;;;3.75;1.67;;;;;;;17.35;86.37;101208.07;1575838;89;21444;-80
2022/08/31 06:52:03;;;;;;;3.42;1.47;;;;;;;17.40;86.13;101198.53;1575112;89;21111;-79
2022/08/31 06:54:32;;;;;;;3.87;1.30;;;;;;;17.44;85.92;101206.72;1575122;91;21103;-79
2022/08/31 06:57:18;;;;;;;6.08;1.30;;;;;;;17.47;85.93;101207.88;1574711;89;21114;-79
2022/08/31 07:00:10;;;;;;;4.45;1.50;;;;;;;17.52;85.66;101205.00;1574711;89;21167;-80
2022/08/31 07:02:39;;;;;;;2.58;1.22;;;;;;;17.59;85.78;101211.67;1574021;89;21138;-80
2022/08/31 07:05:08;;;;;;;3.05;1.32;;;;;;;17.64;85.68;101203.00;1574414;89;21107;-80
2022/08/31 07:07:36;;;;;;;;;;;;;;;17.73;85.47;101205.15;1577559;91;21168;-80
2022/08/31 07:10:07;;;;;;;3.40;1.17;;;;;;;17.79;85.32;101200.02;1574840;89;20510;-79
2022/08/31 07:12:33;;;;;;;3.27;1.30;;;;;;;17.84;85.25;101203.27;1575017;91;21910;-79
2022/08/31 07:15:00;;;;;;;3.47;1.20;;;;;;;17.91;85.11;101203.34;1575214;90;21126;-84
2022/08/31 07:17:27;;;;;;;4.28;1.50;;;;;;;17.98;85.12;101202.52;1575109;90;21118;-78
2022/08/31 07:19:54;;;;;;;2.80;1.65;;;;;;;18.08;85.13;101210.84;1575199;91;21107;-85
2022/08/31 07:22:22;;;;;;;3.95;1.40;;;;;;;18.11;84.42;101210.66;1575230;90;21265;-82
2022/08/31 07:24:51;;;;;;;2.62;1.20;;;;;;;18.11;84.38;101208.86;1575238;90;21119;-82
2022/08/31 07:27:18;;;;;;;3.17;1.50;;;;;;;18.12;84.07;101210.56;1575078;91;21625;-80
2022/08/31 07:29:59;;;;;;;3.70;1.17;;;;;;;18.13;84.10;101206.98;1584918;88;21136;-81
2022/08/31 07:32:28;;;;;;;3.08;1.27;;;;;;;18.17;83.83;101208.99;1596986;88;21082;-79
2022/08/31 07:34:55;;;;;;;4.00;1.15;;;;;;;18.18;83.96;101216.87;1617797;86;21138;-81
2022/08/31 07:43:07;;;;;;;3.35;1.10;;;;;;;18.29;83.62;101220.27;1668202;84;21059;-79
2022/08/31 07:45:36;;;;;;;2.58;1.32;;;;;;;18.37;83.38;101219.80;1665960;84;20961;-83
2022/08/31 07:48:04;;;;;;;2.42;1.00;;;;;;;18.41;83.31;101217.38;1677602;84;21563;-79
2022/08/31 07:50:37;;;;;;;3.35;1.22;;;;;;;18.48;83.24;101216.06;1659727;84;22033;-79
2022/08/31 07:53:05;;;;;;;3.90;1.22;;;;;;;18.53;83.32;101214.48;1654590;84;21063;-80
2022/08/31 07:55:38;;;;;;;2.35;0.90;;;;;;;18.61;83.41;101211.77;1662745;84;21038;-80
2022/08/31 07:58:12;;;;;;;2.02;0.93;;;;;;;18.73;83.38;101216.39;1669941;84;21003;-79
2022/08/31 08:00:39;;;;;;;4.83;1.00;;;;;;;18.85;83.07;101213.99;1637382;86;21566;-81
2022/08/31 08:03:06;;;;;;;4.78;0.85;;;;;;;18.97;83.07;101217.72;1625477;86;21154;-77
2022/08/31 08:05:40;;;;;;;1.72;1.02;;;;;;;19.07;82.57;101213.10;1601669;87;21682;-81
2022/08/31 08:08:21;;;;;;;5.40;1.20;;;;;;;19.13;82.17;101218.04;1656745;84;21008;-90
2022/08/31 08:10:50;;;;;;;2.58;0.98;;;;;;;19.19;81.93;101221.28;1625232;86;21133;-82
2022/08/31 08:13:36;;;;;;;2.17;0.82;;;;;;;19.24;81.81;101221.86;1618358;86;21074;-79
2022/08/31 08:16:12;;;;;;;3.58;1.02;;;;;;;19.40;81.92;101221.32;1578021;86;21163;-81
2022/08/31 08:18:57;;;;;;;1.98;0.80;;;;;;;19.54;81.58;101223.98;1609620;87;21065;-82
2022/08/31 08:21:26;;;;;;;5.28;0.80;;;;;;;19.69;81.12;101228.00;1607191;87;21079;-86
2022/08/31 08:23:54;;;;;;;2.27;1.12;;;;;;;19.71;79.86;101225.62;1614998;87;21126;-81
2022/08/31 08:26:23;;;;;;;3.80;1.00;;;;;;;19.82;80.23;101228.47;1580656;87;21065;-79
2022/08/31 08:28:58;;;;;;;2.50;0.82;;;;;;;19.96;79.96;101230.75;1585547;87;21164;-79
2022/08/31 08:31:27;;;;;;;4.00;0.90;;;;;;;20.08;80.08;101228.62;1616251;88;21028;-81
2022/08/31 08:33:54;;;;;;;2.72;1.20;;;;;;;20.22;79.62;101235.25;1614449;87;21069;-82
2022/08/31 08:36:22;;;;;;;4.62;1.10;;;;;;;20.30;78.85;101240.08;1638475;86;21093;-80
2022/08/31 08:38:52;;;;;;;4.12;0.98;;;;;;;20.30;78.28;101243.23;1628782;86;21130;-77
2022/08/31 08:41:24;;;;;;;2.10;0.82;;;;;;;20.31;77.75;101244.92;1625206;87;21556;-82
2022/08/31 08:43:57;;;;;;;2.98;0.90;;;;;;;20.31;77.46;101239.59;1624224;87;21067;-80
2022/08/31 08:46:40;;;;;;;9.15;1.32;;;;;;;20.33;77.07;101243.87;1623849;87;21047;-78
2022/08/31 08:49:30;;;;;;;2.70;0.78;;;;;;;20.28;76.28;101241.98;1624337;87;21936;-81
2022/08/31 08:52:10;;;;;;;1.90;0.70;;;;;;;20.22;76.49;101241.90;1624423;88;21748;-77
2022/08/31 08:54:43;;;;;;;2.72;0.90;;;;;;;20.19;76.40;101239.44;1595509;88;21973;-77
2022/08/31 08:57:16;;;;;;;3.50;0.90;;;;;;;20.21;76.69;101232.70;1624374;88;21059;-80
2022/08/31 08:59:47;;;;;;;4.22;0.95;;;;;;;20.31;76.85;101236.94;1623880;88;21144;-80
2022/08/31 09:02:36;;;;;;;2.10;1.05;;;;;;;20.44;76.81;101237.37;1624500;88;21063;-80
2022/08/31 09:05:29;;;;;;;2.25;0.98;;;;;;;20.59;76.27;101230.69;1624425;87;21090;-81
2022/08/31 09:08:15;;;;;;;2.20;0.90;;;;;;;20.70;76.08;101227.72;1623044;88;21149;-77
2022/08/31 09:11:08;;;;;;;3.02;0.90;;;;;;;20.79;75.79;101223.59;1624495;87;21040;-79
2022/08/31 09:14:05;;;;;;;3.70;0.90;;;;;;;20.87;75.43;101227.08;1625864;87;21070;-78
2022/08/31 09:16:43;;;;;;;2.33;0.98;;;;;;;20.85;74.39;101232.50;1626390;88;21055;-77
2022/08/31 09:19:17;;;;;;;1.85;0.82;;;;;;;20.78;74.03;101231.18;1616407;88;24194;-77
2022/08/31 09:21:49;;;;;;;4.45;0.75;;;;;;;20.71;73.58;101236.56;1626521;88;21951;-77
2022/08/31 09:24:26;;;;;;;4.78;0.72;;;;;;;20.60;72.69;101233.27;1625292;88;21043;-77
2022/08/31 09:27:16;;;;;;;1.50;0.80;;;;;;;20.46;72.65;101232.81;1626181;88;21119;-77
2022/08/31 09:29:57;;;;;;;1.90;0.90;;;;;;;20.42;72.81;101235.77;1626581;88;21163;-78
2022/08/31 09:32:30;;;;;;;1.07;0.57;;;;;;;20.42;72.94;101229.11;1626309;88;21127;-77
2022/08/31 09:35:13;;;;;;;2.52;0.65;;;;;;;20.43;73.13;101231.69;1626576;88;21122;-77
2022/08/31 09:37:45;;;;;;;2.60;0.82;;;;;;;20.46;72.72;101226.16;1624781;88;21108;-77
2022/08/31 09:40:38;;;;;;;2.65;0.95;;;;;;;20.50;72.85;101229.46;1608610;88;20944;-77
2022/08/31 09:43:21;;;;;;;3.35;0.93;;;;;;;20.60;73.02;101225.77;1626260;88;21102;-77
2022/08/31 09:45:58;;;;;;;;;;;;;;;20.78;72.65;101216.53;1624762;88;21070;-77
2022/08/31 09:48:54;;;;;;;;;;;;;;;21.07;72.69;101220.39;1628592;88;21153;-77
2022/08/31 09:51:33;;;;;;;3.15;0.65;;;;;;;21.29;72.28;101215.30;1626144;87;20164;-77
2022/08/31 09:56:57;;;;;;;1.52;0.70;;;;;;;21.82;71.59;101208.02;1626900;87;21257;-78
2022/08/31 09:59:40;;;;;;;1.92;0.70;;;;;;;22.05;70.41;101206.84;1626906;88;22272;-77
2022/08/31 10:02:23;;;;;;;2.52;0.70;;;;;;;22.06;69.23;101213.91;1626894;87;21305;-80
2022/08/31 10:04:59;;;;;;;2.75;0.70;;;;;;;22.04;68.52;101211.34;1625737;87;21475;-83
2022/08/31 10:08:03;;;;;;;2.45;0.70;;;;;;;22.01;68.41;101212.05;1622470;86;21034;-76
2022/08/31 10:10:34;;;;;;;1.85;0.53;;;;;;;21.98;68.31;101208.27;1603342;87;21038;-77
2022/08/31 10:13:33;;;;;;;1.60;0.60;;;;;;;21.99;68.13;101204.62;1623129;87;21552;-81
2022/08/31 10:16:13;;;;;;;2.77;0.60;;;;;;;22.14;68.21;101199.98;1626673;86;21130;-75
2022/08/31 10:18:49;;;;;;;1.92;0.88;;;;;;;22.27;67.87;101206.16;1605104;88;21012;-76
2022/08/31 10:21:25;;;;;;;1.75;0.70;;;;;;;22.30;67.02;101196.59;1621953;86;21045;-76
2022/08/31 10:24:04;;;;;;;1.27;0.80;;;;;;;22.37;66.78;101194.34;1622628;87;21112;-80
2022/08/31 10:26:45;;;;;;;1.32;0.70;;;;;;;22.59;66.26;101183.75;1620905;87;21576;-80
2022/08/31 10:29:34;;;;;;;1.85;0.60;;;;;;;22.78;65.47;101183.67;1620572;86;21155;-80
2022/08/31 10:32:07;;;;;;;1.32;0.60;;;;;;;23.02;65.31;101187.18;1624688;87;21071;-79
2022/08/31 10:37:38;;;;;;;3.17;0.75;;;;;;;22.94;64.41;101185.55;1671600;85;21070;-81
2022/08/31 10:40:22;;;;;;;1.85;0.70;;;;;;;22.76;64.14;101190.49;1655234;85;21612;-76
2022/08/31 10:43:17;;;;;;;3.42;0.90;;;;;;;22.58;64.09;101192.71;1655187;84;21143;-78
2022/08/31 10:45:56;;;;;;;1.30;0.60;;;;;;;22.39;63.75;101191.92;1660418;84;21584;-78
2022/08/31 10:48:26;;;;;;;3.62;0.70;;;;;;;22.19;63.32;101192.03;1663893;85;21064;-77
2022/08/31 10:51:16;;;;;;;2.17;0.67;;;;;;;22.02;63.15;101197.23;1670836;84;22434;-79
2022/08/31 10:54:05;;;;;;;3.35;0.78;;;;;;;21.82;62.83;101189.34;1606598;88;21673;-82
2022/08/31 10:56:57;;;;;;;1.67;0.60;;;;;;;21.68;62.75;101193.97;1604902;88;21151;-77
2022/08/31 10:59:50;;;;;;;1.22;0.60;;;;;;;21.50;62.65;101190.77;1604492;88;20958;-77
2022/08/31 11:02:31;;;;;;;2.80;0.88;;;;;;;21.40;63.02;101189.73;1604767;88;21085;-77
2022/08/31 11:05:32;;;;;;;1.65;0.80;;;;;;;21.30;63.03;101188.14;1604494;88;21025;-78
2022/08/31 11:08:07;;;;;;;1.90;0.68;;;;;;;21.29;63.54;101191.78;1603342;88;21482;-77
2022/08/31 11:10:52;;;;;;;2.35;0.70;;;;;;;21.29;63.90;101179.78;1603169;87;21793;-77
2022/08/31 11:13:59;;;;;;;1.30;0.68;;;;;;;21.29;63.83;101177.11;1604808;88;21069;-79
2022/08/31 11:16:51;;;;;;;1.45;0.60;;;;;;;21.30;64.15;101173.48;1604606;87;21591;-78
2022/08/31 11:19:36;;;;;;;1.75;0.70;;;;;;;21.52;64.40;101179.52;1604390;88;21069;-82
2022/08/31 11:22:45;;;;;;;1.40;0.72;;;;;;;21.72;64.01;101173.61;1606557;88;21185;-77
2022/08/31 11:25:37;;;;;;;2.00;0.80;;;;;;;21.83;63.40;101165.69;1605453;88;21149;-77
2022/08/31 11:28:31;;;;;;;1.32;0.80;;;;;;;21.99;63.37;101171.27;1603033;88;21057;-77
2022/08/31 11:30:55;;;;;;;1.45;0.70;;;;;;;22.25;63.34;101165.36;1651033;84;21073;-77
2022/08/31 11:33:26;;;;;;;0.88;0.60;;;;;;;22.55;63.02;101162.71;1667402;84;21068;-77
2022/08/31 11:36:08;;;;;;;1.17;0.53;;;;;;;22.81;62.69;101164.73;1670080;84;21151;-77
2022/08/31 11:38:55;;;;;;;2.02;0.60;;;;;;;23.04;61.83;101164.35;1651224;85;21918;-76
2022/08/31 11:41:48;;;;;;;2.42;0.70;;;;;;;23.32;61.19;101166.56;1639649;87;21028;-77
2022/08/31 11:44:40;;;;;;;1.70;0.70;;;;;;;23.59;60.45;101166.21;1647771;85;21432;-77
2022/08/31 11:47:36;;;;;;;4.72;1.07;;;;;;;23.76;60.39;101164.89;1618365;87;21086;-77
2022/08/31 11:50:37;;;;;;;2.47;0.75;;;;;;;24.09;60.38;101165.80;1618639;87;21597;-77
2022/08/31 11:53:42;;;;;;;2.30;0.90;;;;;;;24.36;59.92;101157.33;1618319;87;21127;-77
2022/08/31 11:56:10;;;;;;;3.20;0.70;;;;;;;24.51;59.11;101156.55;1618586;87;21096;-76
2022/08/31 11:58:38;;;;;;;2.22;0.57;;;;;;;24.54;58.98;101162.99;1618097;87;21091;-77
2022/08/31 12:01:17;;;;;;;2.08;0.75;;;;;;;24.58;58.45;101160.44;1622186;86;21013;-76
2022/08/31 12:03:51;;;;;;;1.45;0.50;;;;;;;24.58;57.19;101155.08;1618568;87;21695;-76
2022/08/31 12:06:34;;;;;;;1.57;0.50;;;;;;;24.59;57.10;101146.04;1614314;85;21162;-77
2022/08/31 12:09:31;;;;;;;1.50;0.78;;;;;;;24.66;57.03;101145.86;1615175;86;21050;-77
2022/08/31 12:12:43;;;;;;;1.30;0.50;;;;;;;24.70;55.95;101145.14;1602840;86;21146;-76